ACURITE STATION HISTORICAL DATA FROM WUNDERGROUND.COM FOR HIGH PARK VILLAGE,TORONTO,ON,CANADA
 
Daily Summary for December 10, 2019 Units:  Metric    English   Both
Next Day »
Daily Weekly Monthly Yearly Custom
  Current: High: Low: Average:
Temperature: 3.9 °C 10.7 °C 3.9 °C 8.4 °C
Dew Point: -0.5 °C 8.7 °C -0.7 °C 4.8 °C
Humidity: 73% 88% 68% 78%
Wind Speed: 6.4km/h 22.5km/h 1.6km/h 7.4km/h
Wind Gust: 11.3km/h 22.5km/h - -
WindWest - - SW
Pressure: 999.5 hPa 999.5 hPa 992.4 hPa -
Precipitation: 0.25 mm      
Historical Graphs
 
 
Tabular Data for December 10, 2019
Time Temperature Dew Point Pressure Wind Wind Speed Wind Gust Humidity Rainfall Rate (Hourly)
00:00 10.3 °C 8.4 °C 992.8 hPa South 6.4 km/h 9.7 km/h 88% 0 mm
00:05 10.3 °C 8.4 °C 992.8 hPa North 6.4 km/h 8 km/h 88% 0 mm
00:10 10.4 °C 8.5 °C 992.8 hPa SSE 6.4 km/h 9.7 km/h 88% 0.25 mm
00:15 10.4 °C 8.6 °C 992.8 hPa SE 4.8 km/h 11.3 km/h 88% 0.25 mm
00:20 10.4 °C 8.6 °C 992.8 hPa SE 4.8 km/h 11.3 km/h 88% 0.25 mm
00:25 10.5 °C 8.6 °C 992.8 hPa NW 4.8 km/h 9.7 km/h 88% 0.25 mm
00:30 10.6 °C 8.5 °C 992.4 hPa SE 8 km/h 9.7 km/h 87% 0.25 mm
00:35 10.5 °C 8.4 °C 992.4 hPa SSE 8 km/h 8 km/h 87% 0.25 mm
00:40 10.6 °C 8.5 °C 992.4 hPa SSE 11.3 km/h 11.3 km/h 87% 0.25 mm
00:45 10.6 °C 8.6 °C 992.4 hPa SE 8 km/h 14.5 km/h 87% 0.25 mm
00:50 10.7 °C 8.6 °C 992.8 hPa WNW 3.2 km/h 8 km/h 87% 0.25 mm
00:55 10.6 °C 8.6 °C 992.8 hPa East 8 km/h 9.7 km/h 87% 0.25 mm
01:00 10.7 °C 8.6 °C 992.8 hPa South 4.8 km/h 6.4 km/h 87% 0.25 mm
01:05 10.7 °C 8.5 °C 992.8 hPa SSE 3.2 km/h 6.4 km/h 86% 0.25 mm
01:10 10.7 °C 8.7 °C 992.8 hPa NNW 6.4 km/h 6.4 km/h 87% 0 mm
01:15 10.7 °C 8.4 °C 992.8 hPa South 6.4 km/h 6.4 km/h 86% 0 mm
01:20 10.7 °C 8.5 °C 992.8 hPa WSW 6.4 km/h 6.4 km/h 86% 0 mm
01:25 10.7 °C 8.2 °C 993.1 hPa SSE 4.8 km/h 4.8 km/h 85% 0 mm
01:30 10.7 °C 8.2 °C 993.1 hPa SSW 6.4 km/h 6.4 km/h 85% 0 mm
01:35 10.7 °C 8.1 °C 993.1 hPa NNW 1.6 km/h 6.4 km/h 84% 0 mm
01:40 10.7 °C 8.1 °C 993.1 hPa SSW 3.2 km/h 6.4 km/h 84% 0 mm
01:45 10.6 °C 8 °C 993.5 hPa WSW 8 km/h 8 km/h 84% 0 mm
01:50 10.6 °C 7.9 °C 993.5 hPa SW 3.2 km/h 4.8 km/h 84% 0 mm
01:55 10.6 °C 7.8 °C 993.5 hPa SSE 3.2 km/h 4.8 km/h 83% 0 mm
02:00 10.5 °C 7.7 °C 993.5 hPa NNE 4.8 km/h 6.4 km/h 83% 0 mm
02:05 10.4 °C 7.4 °C 993.8 hPa SE 6.4 km/h 8 km/h 82% 0 mm
02:10 10.4 °C 7.4 °C 993.8 hPa SSW 1.6 km/h 3.2 km/h 82% 0 mm
02:15 10.3 °C 7.4 °C 994.1 hPa SSE 4.8 km/h 4.8 km/h 82% 0 mm
02:20 10.3 °C 7.2 °C 994.1 hPa SSE 1.6 km/h 6.4 km/h 81% 0 mm
02:25 10.3 °C 7.2 °C 994.5 hPa NW 3.2 km/h 4.8 km/h 81% 0 mm
02:30 10.4 °C 7.1 °C 994.5 hPa SE 3.2 km/h 4.8 km/h 80% 0 mm
02:35 10.3 °C 7 °C 995.1 hPa North 14.5 km/h 14.5 km/h 80% 0 mm
02:40 9.4 °C 6.2 °C 994.8 hPa ENE 6.4 km/h 14.5 km/h 80% 0 mm
02:45 9 °C 5.9 °C 995.1 hPa SW 3.2 km/h 17.7 km/h 81% 0 mm
02:50 8.8 °C 5.8 °C 995.1 hPa NW 11.3 km/h 11.3 km/h 81% 0 mm
02:55 8.8 °C 5.5 °C 995.5 hPa WSW 9.7 km/h 11.3 km/h 80% 0 mm
03:00 8.7 °C 5.4 °C 995.1 hPa WSW 6.4 km/h 20.9 km/h 80% 0 mm
03:05 8.7 °C 5.4 °C 995.5 hPa SW 3.2 km/h 4.8 km/h 80% 0 mm
03:10 8.6 °C 5.2 °C 995.5 hPa SE 6.4 km/h 6.4 km/h 79% 0 mm
03:15 8.6 °C 5 °C 995.5 hPa SSE 3.2 km/h 6.4 km/h 78% 0 mm
03:20 8.6 °C 4.9 °C 995.5 hPa West 4.8 km/h 9.7 km/h 78% 0 mm
03:25 8.6 °C 4.9 °C 995.8 hPa NW 6.4 km/h 6.4 km/h 78% 0 mm
03:30 8.5 °C 4.9 °C 995.8 hPa NNW 8 km/h 8 km/h 78% 0 mm
03:35 8.4 °C 4.8 °C 996.2 hPa SW 4.8 km/h 9.7 km/h 78% 0 mm
03:40 8.4 °C 4.8 °C 996.5 hPa WNW 1.6 km/h 6.4 km/h 78% 0 mm
03:45 8.4 °C 4.8 °C 996.5 hPa SSE 4.8 km/h 14.5 km/h 78% 0 mm
03:50 8.2 °C 4.4 °C 996.5 hPa ESE 19.3 km/h 19.3 km/h 77% 0 mm
03:55 7.8 °C 3.1 °C 996.8 hPa NW 8 km/h 20.9 km/h 72% 0 mm
04:00 7.6 °C 2.7 °C 996.8 hPa West 11.3 km/h 11.3 km/h 71% 0 mm
04:05 7.4 °C 2.5 °C 997.2 hPa South 3.2 km/h 11.3 km/h 71% 0 mm
04:10 7.2 °C 1.9 °C 997.2 hPa SW 14.5 km/h 14.5 km/h 69% 0 mm
04:15 7.1 °C 1.6 °C 997.2 hPa SSW 6.4 km/h 12.9 km/h 68% 0 mm
04:20 7 °C 1.7 °C 997.2 hPa WNW 6.4 km/h 6.4 km/h 69% 0 mm
04:25 6.8 °C 1.5 °C 997.2 hPa SE 6.4 km/h 6.4 km/h 69% 0 mm
04:30 6.7 °C 1.4 °C 997.2 hPa West 8 km/h 12.9 km/h 69% 0 mm
04:35 6.6 °C 1.3 °C 997.5 hPa SW 6.4 km/h 9.7 km/h 69% 0 mm
04:40 6.5 °C 1.2 °C 997.5 hPa SSW 11.3 km/h 11.3 km/h 69% 0 mm
04:45 6.4 °C 1.2 °C 997.5 hPa SSE 16.1 km/h 16.1 km/h 69% 0 mm
04:50 6.3 °C 1.1 °C 997.5 hPa SSW 6.4 km/h 14.5 km/h 69% 0 mm
04:55 6.2 °C 1.2 °C 997.9 hPa South 6.4 km/h 11.3 km/h 70% 0 mm
05:00 6.2 °C 0.9 °C 997.9 hPa SSE 11.3 km/h 11.3 km/h 69% 0 mm
05:05 6.2 °C 1.1 °C 997.9 hPa WNW 6.4 km/h 9.7 km/h 70% 0 mm
05:10 6.1 °C 1 °C 998.2 hPa SSE 4.8 km/h 6.4 km/h 70% 0 mm
05:15 6 °C 0.9 °C 998.2 hPa SSE 3.2 km/h 3.2 km/h 70% 0 mm
05:20 5.9 °C 1.1 °C 998.2 hPa SW 8 km/h 12.9 km/h 71% 0 mm
05:25 5.8 °C 1 °C 998.5 hPa SSW 11.3 km/h 11.3 km/h 71% 0 mm
05:30 5.7 °C 0.8 °C 998.5 hPa SW 6.4 km/h 17.7 km/h 71% 0 mm
05:35 5.6 °C 0.9 °C 998.5 hPa NW 11.3 km/h 17.7 km/h 72% 0 mm
05:40 5.3 °C 0.7 °C 998.9 hPa WNW 22.5 km/h 22.5 km/h 72% 0 mm
05:45 5 °C 0 °C 998.9 hPa SW 14.5 km/h 14.5 km/h 70% 0 mm
05:50 4.8 °C 0 °C 999.2 hPa West 16.1 km/h 16.1 km/h 71% 0 mm
05:55 4.4 °C -0.4 °C 999.2 hPa West 17.7 km/h 20.9 km/h 71% 0 mm
06:00 4.1 °C -0.7 °C 999.2 hPa WNW 12.9 km/h 22.5 km/h 71% 0 mm
06:05 4.1 °C -0.7 °C 999.2 hPa NNW 8 km/h 16.1 km/h 71% 0 mm
06:10 4 °C -0.6 °C 999.5 hPa WSW 12.9 km/h 14.5 km/h 72% 0 mm
06:15 3.9 °C -0.5 °C 999.5 hPa West 6.4 km/h 11.3 km/h 73% 0 mm
High Park Village Arhives